createdAt,value
2023-05-04T00:01:37.172Z,101114.75
2023-05-04T00:04:05.848Z,101119.22
2023-05-04T00:06:34.951Z,101123.03
2023-05-04T00:09:04.129Z,101123.25
2023-05-04T00:11:34.859Z,101125.06
2023-05-04T00:14:03.346Z,101112.06
2023-05-04T00:16:32.003Z,101112.22
2023-05-04T00:19:00.644Z,101093.22
2023-05-04T00:21:29.219Z,101105.78
2023-05-04T00:23:57.807Z,101104.34
2023-05-04T00:26:26.324Z,101103.00
2023-05-04T00:28:56.427Z,101094.59
2023-05-04T00:31:25.034Z,101098.28
2023-05-04T00:33:53.825Z,101086.81
2023-05-04T00:36:22.393Z,101098.81
2023-05-04T00:38:51.714Z,101102.53
2023-05-04T00:41:21.518Z,101105.28
2023-05-04T00:43:50.227Z,101093.16
2023-05-04T00:46:20.253Z,101088.09
2023-05-04T00:48:51.797Z,101091.06
2023-05-04T00:51:21.778Z,101101.09
2023-05-04T00:53:51.119Z,101096.19
2023-05-04T00:56:20.212Z,101098.16
2023-05-04T00:58:48.740Z,101106.28
2023-05-04T01:01:17.467Z,101097.84
2023-05-04T01:03:47.766Z,101100.72
2023-05-04T01:06:26.147Z,101097.78
2023-05-04T01:09:00.427Z,101085.97
2023-05-04T01:11:38.565Z,101108.66
2023-05-04T01:14:08.716Z,101108.97
2023-05-04T01:16:37.754Z,101114.47
2023-05-04T01:19:07.964Z,101110.34
2023-05-04T01:21:39.395Z,101113.94
2023-05-04T01:24:08.636Z,101113.19
2023-05-04T01:26:42.220Z,101108.78
2023-05-04T01:29:17.734Z,101112.38
2023-05-04T01:31:47.482Z,101114.50
2023-05-04T01:34:18.068Z,101108.56
2023-05-04T01:36:48.573Z,101110.47
2023-05-04T01:39:17.448Z,101118.47
2023-05-04T01:41:46.237Z,101105.63
2023-05-04T01:44:15.089Z,101109.22
2023-05-04T01:46:43.840Z,101110.16
2023-05-04T01:49:12.368Z,101101.94
2023-05-04T01:51:40.715Z,101110.59
2023-05-04T01:54:10.590Z,101103.94
2023-05-04T01:56:39.144Z,101105.84
2023-05-04T01:59:07.560Z,101106.91
2023-05-04T02:01:36.848Z,101107.53
2023-05-04T02:04:06.262Z,101113.00
2023-05-04T02:06:34.901Z,101115.13
2023-05-04T02:09:03.749Z,101115.31
2023-05-04T02:11:34.162Z,101106.25
2023-05-04T02:14:02.890Z,101111.41
2023-05-04T02:16:31.789Z,101100.22
2023-05-04T02:19:06.650Z,101107.31
2023-05-04T02:21:35.395Z,101111.09
2023-05-04T02:24:06.617Z,101102.44
2023-05-04T02:26:37.215Z,101101.19
2023-05-04T02:29:06.432Z,101109.81
2023-05-04T02:31:35.483Z,101103.06
2023-05-04T02:34:04.063Z,101104.22
2023-05-04T02:36:32.466Z,101101.69
2023-05-04T02:39:01.534Z,101102.81
2023-05-04T02:41:30.708Z,101091.97
2023-05-04T02:44:01.064Z,101091.22
2023-05-04T02:46:29.547Z,101092.47
2023-05-04T02:48:58.112Z,101093.41
2023-05-04T02:51:27.044Z,101105.72
2023-05-04T02:53:55.538Z,101102.25
2023-05-04T02:56:24.515Z,101105.06
2023-05-04T02:58:52.982Z,101099.28
2023-05-04T03:01:23.017Z,101091.56
2023-05-04T03:03:51.485Z,101097.03
2023-05-04T03:06:20.108Z,101098.84
2023-05-04T03:08:48.690Z,101089.88
2023-05-04T03:11:17.394Z,101098.09
2023-05-04T03:13:46.039Z,101100.06
2023-05-04T03:16:14.906Z,101094.06
2023-05-04T03:18:45.203Z,101095.00
2023-05-04T03:21:13.769Z,101095.94
2023-05-04T03:23:42.314Z,101097.09
2023-05-04T03:26:10.936Z,101093.72
2023-05-04T03:28:39.769Z,101093.09
2023-05-04T03:31:08.233Z,101094.88
2023-05-04T03:33:36.832Z,101101.81
2023-05-04T03:36:07.831Z,101109.81
2023-05-04T03:38:36.564Z,101103.69
2023-05-04T03:41:04.970Z,101101.47
2023-05-04T03:43:33.452Z,101104.75
2023-05-04T03:46:01.958Z,101082.69
2023-05-04T03:48:30.575Z,101104.09
2023-05-04T03:50:59.518Z,101104.28
2023-05-04T03:53:29.484Z,101105.22
2023-05-04T03:55:57.928Z,101107.84
2023-05-04T03:58:26.350Z,101109.53
2023-05-04T04:00:55.059Z,101106.16
2023-05-04T04:03:23.809Z,101109.66
2023-05-04T04:05:52.460Z,101109.75
2023-05-04T04:08:21.016Z,101109.00
2023-05-04T04:10:51.597Z,101118.75
2023-05-04T04:13:20.251Z,101117.06
2023-05-04T04:15:52.334Z,101117.94
2023-05-04T04:18:20.908Z,101126.56
2023-05-04T04:20:49.896Z,101112.88
2023-05-04T04:23:19.557Z,101129.81
2023-05-04T04:25:48.553Z,101125.22
2023-05-04T04:28:19.292Z,101121.56
2023-05-04T04:30:48.440Z,101119.47
2023-05-04T04:33:17.256Z,101120.13
2023-05-04T04:35:46.454Z,101120.75
2023-05-04T04:38:14.922Z,101119.53
2023-05-04T04:40:43.631Z,101117.53
2023-05-04T04:43:13.244Z,101119.03
2023-05-04T04:45:43.220Z,101115.38
2023-05-04T04:48:11.607Z,101119.38
2023-05-04T04:50:40.991Z,101114.09
2023-05-04T04:53:09.329Z,101125.91
2023-05-04T04:55:38.777Z,101126.47
2023-05-04T04:58:09.066Z,101126.25
2023-05-04T05:00:37.777Z,101124.00
2023-05-04T05:03:07.808Z,101129.78
2023-05-04T05:05:36.270Z,101123.38
2023-05-04T05:08:04.899Z,101115.28
2023-05-04T05:10:33.282Z,101123.72
2023-05-04T05:13:02.831Z,101131.94
2023-05-04T05:15:31.840Z,101121.22
2023-05-04T05:18:00.686Z,101127.53
2023-05-04T05:20:31.077Z,101125.44
2023-05-04T05:23:00.338Z,101126.50
2023-05-04T05:25:28.877Z,101124.19
2023-05-04T05:27:57.371Z,101123.97
2023-05-04T05:30:28.450Z,101116.38
2023-05-04T05:32:56.894Z,101120.81
2023-05-04T05:35:25.316Z,101117.88
2023-05-04T05:37:55.201Z,101116.28
2023-05-04T05:40:24.044Z,101123.00
2023-05-04T05:42:53.033Z,101115.50
2023-05-04T05:45:21.567Z,101109.16
2023-05-04T05:47:50.319Z,101109.78
2023-05-04T05:50:19.689Z,101120.44
2023-05-04T05:52:48.139Z,101103.97
2023-05-04T05:55:18.552Z,101126.81
2023-05-04T05:57:47.167Z,101116.53
2023-05-04T06:00:17.055Z,101120.50
2023-05-04T06:02:45.840Z,101125.81
2023-05-04T06:05:14.419Z,101116.44
2023-05-04T06:07:42.848Z,101123.94
2023-05-04T06:10:12.234Z,101122.47
2023-05-04T06:12:42.165Z,101129.22
2023-05-04T06:15:12.439Z,101129.97
2023-05-04T06:17:40.952Z,101129.88
2023-05-04T06:20:11.627Z,101128.78
2023-05-04T06:22:40.659Z,101133.34
2023-05-04T06:25:10.065Z,101126.38
2023-05-04T06:27:38.930Z,101123.38
2023-05-04T06:30:11.673Z,101135.03
2023-05-04T06:32:40.180Z,101122.56
2023-05-04T06:35:11.161Z,101128.81
2023-05-04T06:37:39.564Z,101120.59
2023-05-04T06:40:09.701Z,101115.72
2023-05-04T06:42:38.269Z,101119.63
2023-05-04T06:45:09.408Z,101129.09
2023-05-04T06:47:38.173Z,101132.66
2023-05-04T06:50:10.926Z,101129.75
2023-05-04T06:52:41.221Z,101130.50
2023-05-04T06:55:10.032Z,101130.03
2023-05-04T06:57:38.658Z,101141.78
2023-05-04T07:00:12.346Z,101134.06
2023-05-04T07:02:40.913Z,101138.56
2023-05-04T07:05:10.112Z,101128.56
2023-05-04T07:07:39.054Z,101123.56
2023-05-04T07:10:08.510Z,101140.56
2023-05-04T07:12:37.034Z,101140.19
2023-05-04T07:15:06.967Z,101125.41
2023-05-04T07:17:37.974Z,101129.66
2023-05-04T07:20:07.837Z,101126.06
2023-05-04T07:22:36.666Z,101124.09
2023-05-04T07:25:05.825Z,101122.31
2023-05-04T07:27:35.290Z,101121.03
2023-05-04T07:30:04.494Z,101115.94
2023-05-04T07:32:33.624Z,101121.53
2023-05-04T07:35:03.493Z,101116.06
2023-05-04T07:37:31.992Z,101119.09
2023-05-04T07:40:01.671Z,101118.34
2023-05-04T07:42:30.383Z,101114.78
2023-05-04T07:44:59.076Z,101110.34
2023-05-04T07:47:29.157Z,101114.16
2023-05-04T07:49:58.147Z,101094.22
2023-05-04T07:52:28.079Z,101097.59
2023-05-04T07:54:57.119Z,101099.25
2023-05-04T07:57:26.318Z,101102.97
2023-05-04T07:59:56.129Z,101100.31
2023-05-04T08:02:24.695Z,101102.28
2023-05-04T08:04:53.317Z,101101.00
2023-05-04T08:07:22.865Z,101097.03
2023-05-04T08:09:56.092Z,101101.34
2023-05-04T08:12:27.190Z,101090.53
2023-05-04T08:14:55.700Z,101085.31
2023-05-04T08:17:24.182Z,101098.19
2023-05-04T08:19:52.729Z,101093.59
2023-05-04T08:22:21.477Z,101101.38
2023-05-04T08:24:50.414Z,101095.47
2023-05-04T08:27:20.439Z,101100.47
2023-05-04T08:29:48.948Z,101098.31
2023-05-04T08:32:17.747Z,101093.00
2023-05-04T08:34:46.254Z,101083.53
2023-05-04T08:37:15.058Z,101092.78
2023-05-04T08:39:43.838Z,101091.00
2023-05-04T08:42:12.739Z,101085.03
2023-05-04T08:44:43.933Z,101087.88
2023-05-04T08:47:22.165Z,101090.09
2023-05-04T08:49:51.176Z,101087.97
2023-05-04T08:52:21.501Z,101082.03
2023-05-04T08:54:51.402Z,101081.56
2023-05-04T08:57:20.716Z,101084.25
2023-05-04T08:59:54.119Z,101076.88
2023-05-04T09:02:24.330Z,101075.56
2023-05-04T09:04:53.770Z,101074.91
2023-05-04T09:07:24.046Z,101072.78
2023-05-04T09:09:53.309Z,101070.81
2023-05-04T09:12:21.971Z,101081.00
2023-05-04T09:14:52.119Z,101072.84
2023-05-04T09:17:26.050Z,101067.00
2023-05-04T09:20:01.430Z,101067.53
2023-05-04T09:22:30.973Z,101067.88
2023-05-04T09:25:08.872Z,101060.19
2023-05-04T09:27:37.447Z,101060.19
2023-05-04T09:30:09.414Z,101061.69
2023-05-04T09:32:46.384Z,101059.69
2023-05-04T09:35:29.190Z,101064.06
2023-05-04T09:38:01.705Z,101057.38
2023-05-04T09:40:34.679Z,101063.50
2023-05-04T09:43:03.368Z,101053.06
2023-05-04T09:45:43.022Z,101049.69
2023-05-04T09:48:19.359Z,101046.53
2023-05-04T09:50:53.080Z,101041.13
2023-05-04T09:53:24.203Z,101041.81
2023-05-04T09:56:09.903Z,101044.25
2023-05-04T09:58:39.055Z,101024.94
2023-05-04T10:01:09.722Z,101033.38
2023-05-04T10:03:38.541Z,101035.63
2023-05-04T10:06:09.322Z,101031.25
2023-05-04T10:08:38.570Z,101036.50
2023-05-04T10:11:07.711Z,101024.53
2023-05-04T10:13:36.297Z,101037.97
2023-05-04T10:16:14.583Z,101031.59
2023-05-04T10:19:10.587Z,101043.06
2023-05-04T10:21:50.243Z,101036.41
2023-05-04T10:24:47.050Z,101029.25
2023-05-04T10:27:18.884Z,101014.22
2023-05-04T10:29:51.183Z,101005.34
2023-05-04T10:32:22.336Z,101012.47
2023-05-04T10:34:51.237Z,101014.25
2023-05-04T10:37:21.971Z,100994.16
2023-05-04T10:39:55.172Z,100999.31
2023-05-04T10:42:24.307Z,100996.81
2023-05-04T10:44:55.457Z,100997.19
2023-05-04T10:47:33.707Z,100997.63
2023-05-04T10:50:04.221Z,100987.78
2023-05-04T10:52:33.478Z,100988.47
2023-05-04T10:55:03.277Z,100983.09
2023-05-04T10:57:32.332Z,100984.38
2023-05-04T11:00:02.099Z,100977.44
2023-05-04T11:02:34.340Z,100974.41
2023-05-04T11:05:05.598Z,100961.72
2023-05-04T11:07:37.173Z,100957.09
2023-05-04T11:10:06.614Z,100960.13
2023-05-04T11:12:35.829Z,100958.53
2023-05-04T11:15:09.190Z,100948.19
2023-05-04T11:17:48.991Z,100945.03
2023-05-04T11:20:24.801Z,100950.94
2023-05-04T11:22:54.134Z,100950.97
2023-05-04T11:25:28.954Z,100945.66
2023-05-04T11:27:57.694Z,100948.16
2023-05-04T11:31:21.947Z,100918.25
2023-05-04T11:34:14.239Z,100921.78
2023-05-04T11:36:42.826Z,100927.59
2023-05-04T11:39:11.911Z,100929.47
2023-05-04T11:41:40.680Z,100915.72
2023-05-04T11:44:10.417Z,100911.75
2023-05-04T11:46:39.204Z,100916.94
2023-05-04T11:49:09.390Z,100916.22
2023-05-04T11:51:38.313Z,100912.28
2023-05-04T11:54:07.442Z,100918.59
2023-05-04T11:56:43.554Z,100909.81
2023-05-04T11:59:12.029Z,100905.84
2023-05-04T12:01:40.625Z,100921.81
2023-05-04T12:04:11.337Z,100913.16
2023-05-04T12:06:41.081Z,100907.22
2023-05-04T12:09:10.103Z,100920.34
2023-05-04T12:11:40.948Z,100899.16
2023-05-04T12:14:12.017Z,100902.03
2023-05-04T12:16:43.320Z,100902.06
2023-05-04T12:19:14.560Z,100906.63
2023-05-04T12:21:52.025Z,100896.84
2023-05-04T12:24:23.196Z,100893.84
2023-05-04T12:26:52.620Z,100895.75
2023-05-04T12:29:21.698Z,100894.69
2023-05-04T12:31:51.850Z,100892.38
2023-05-04T12:34:23.790Z,100890.53
2023-05-04T12:36:52.953Z,100883.56
2023-05-04T12:39:22.330Z,100878.84
2023-05-04T12:41:50.829Z,100877.44
2023-05-04T12:44:19.459Z,100882.97
2023-05-04T12:46:47.965Z,100882.84
2023-05-04T12:49:16.969Z,100869.47
2023-05-04T12:51:48.658Z,100862.22
2023-05-04T12:54:17.248Z,100857.09
2023-05-04T12:56:46.008Z,100859.13
2023-05-04T12:59:14.453Z,100859.06
2023-05-04T13:01:43.005Z,100854.78
2023-05-04T13:04:11.522Z,100864.50
2023-05-04T13:06:40.161Z,100848.84
2023-05-04T13:09:10.275Z,100858.28
2023-05-04T13:11:42.368Z,100851.88
2023-05-04T13:14:11.080Z,100858.31
2023-05-04T13:16:40.545Z,100859.13
2023-05-04T13:19:09.239Z,100862.25
2023-05-04T13:21:40.797Z,100855.72
2023-05-04T13:24:11.811Z,100837.13
2023-05-04T13:26:41.313Z,100848.19
2023-05-04T13:29:10.286Z,100839.44
2023-05-04T13:31:44.840Z,100834.63
2023-05-04T13:34:13.902Z,100835.84
2023-05-04T13:36:42.976Z,100827.78
2023-05-04T13:39:13.362Z,100813.66
2023-05-04T13:41:41.841Z,100815.19
2023-05-04T13:44:11.362Z,100810.78
2023-05-04T13:46:40.841Z,100805.69
2023-05-04T13:49:09.919Z,100798.56
2023-05-04T13:51:39.431Z,100797.88
2023-05-04T13:54:08.996Z,100795.47
2023-05-04T13:56:39.158Z,100793.66
2023-05-04T13:59:07.638Z,100792.53
2023-05-04T14:01:36.225Z,100790.63
2023-05-04T14:04:04.830Z,100783.53
2023-05-04T14:06:33.271Z,100794.56
2023-05-04T14:09:01.752Z,100789.22
2023-05-04T14:11:30.884Z,100790.34
2023-05-04T14:14:00.787Z,100781.00
2023-05-04T14:16:29.565Z,100786.16
2023-05-04T14:18:58.412Z,100776.03
2023-05-04T14:21:27.034Z,100787.31
2023-05-04T14:24:01.254Z,100777.19
2023-05-04T14:26:29.745Z,100767.09
2023-05-04T14:28:58.552Z,100775.38
2023-05-04T14:31:28.543Z,100771.47
2023-05-04T14:33:57.220Z,100761.31
2023-05-04T14:36:25.629Z,100758.59
2023-05-04T14:38:54.064Z,100757.63
2023-05-04T14:41:22.447Z,100751.16
2023-05-04T14:43:51.007Z,100751.72
2023-05-04T14:46:19.604Z,100737.75
2023-05-04T14:48:49.797Z,100740.59
2023-05-04T14:51:24.045Z,100740.69
2023-05-04T14:53:52.646Z,100742.75
2023-05-04T14:56:21.137Z,100752.72
2023-05-04T14:58:50.070Z,100737.31
2023-05-04T15:01:18.682Z,100748.63
2023-05-04T15:03:47.215Z,100753.78
2023-05-04T15:06:17.116Z,100749.38
2023-05-04T15:08:45.614Z,100744.63
2023-05-04T15:11:14.025Z,100745.50
2023-05-04T15:13:44.893Z,100734.72
2023-05-04T15:16:18.123Z,100733.38
2023-05-04T15:18:46.541Z,100727.25
2023-05-04T15:21:16.679Z,100722.78
2023-05-04T15:23:45.476Z,100719.91
2023-05-04T15:26:14.058Z,100715.84
2023-05-04T15:28:42.462Z,100724.50
2023-05-04T15:31:12.661Z,100722.59
2023-05-04T15:33:41.459Z,100714.19
2023-05-04T15:36:10.839Z,100716.91
2023-05-04T15:38:40.845Z,100714.72
2023-05-04T15:41:09.262Z,100723.44
2023-05-04T15:43:37.787Z,100716.81
2023-05-04T15:46:06.421Z,100709.09
2023-05-04T15:48:34.904Z,100712.56
2023-05-04T15:51:03.733Z,100707.03
2023-05-04T15:53:32.307Z,100703.84
2023-05-04T15:56:04.024Z,100707.78
2023-05-04T15:58:34.408Z,100702.53
2023-05-04T16:01:04.406Z,100700.19
2023-05-04T16:03:33.791Z,100711.16
2023-05-04T16:06:02.531Z,100694.97
2023-05-04T16:08:30.977Z,100704.16
2023-05-04T16:10:59.352Z,100699.25
2023-05-04T16:13:29.611Z,100696.19
2023-05-04T16:15:58.190Z,100699.38
2023-05-04T16:18:26.683Z,100694.38
2023-05-04T16:20:55.772Z,100691.47
2023-05-04T16:23:24.442Z,100684.59
2023-05-04T16:25:53.251Z,100681.50
2023-05-04T16:28:22.069Z,100691.88
2023-05-04T16:30:52.214Z,100675.81
2023-05-04T16:33:21.191Z,100677.91
2023-05-04T16:35:49.814Z,100678.28
2023-05-04T16:38:19.680Z,100680.56
2023-05-04T16:40:48.295Z,100674.97
2023-05-04T16:43:16.855Z,100665.78
2023-05-04T16:45:45.853Z,100666.97
2023-05-04T16:48:16.199Z,100677.13
2023-05-04T16:50:44.994Z,100672.06
2023-05-04T16:53:13.566Z,100670.34
2023-05-04T16:55:42.372Z,100671.38
2023-05-04T16:58:11.359Z,100668.00
2023-05-04T17:00:43.053Z,100666.31
2023-05-04T17:03:11.775Z,100670.06
2023-05-04T17:05:41.752Z,100664.44
2023-05-04T17:08:11.566Z,100665.44
2023-05-04T17:10:40.129Z,100663.34
2023-05-04T17:13:09.054Z,100662.09
2023-05-04T17:15:37.721Z,100673.94
2023-05-04T17:18:07.136Z,100667.09
2023-05-04T17:20:36.111Z,100674.53
2023-05-04T17:23:06.682Z,100668.19
2023-05-04T17:25:35.552Z,100667.66
2023-05-04T17:28:04.562Z,100671.22
2023-05-04T17:30:35.871Z,100661.13
2023-05-04T17:33:04.557Z,100668.06
2023-05-04T17:35:33.081Z,100664.78
2023-05-04T17:38:02.384Z,100665.81
2023-05-04T17:40:34.356Z,100664.47
2023-05-04T17:43:03.477Z,100656.91
2023-05-04T17:45:31.966Z,100665.47
2023-05-04T17:48:00.846Z,100646.31
2023-05-04T17:50:29.418Z,100662.38
2023-05-04T17:52:59.428Z,100661.25
2023-05-04T17:55:28.038Z,100661.88
2023-05-04T17:57:58.153Z,100665.84
2023-05-04T18:00:26.707Z,100674.66
2023-05-04T18:02:55.403Z,100674.19
2023-05-04T18:05:25.268Z,100672.41
2023-05-04T18:07:54.066Z,100665.38
2023-05-04T18:10:22.619Z,100668.97
2023-05-04T18:12:51.272Z,100679.09
2023-05-04T18:15:21.509Z,100685.97
2023-05-04T18:17:51.528Z,100682.44
2023-05-04T18:20:20.302Z,100684.47
2023-05-04T18:22:48.858Z,100687.00
2023-05-04T18:25:17.321Z,100678.69
2023-05-04T18:27:45.938Z,100687.38
2023-05-04T18:30:14.626Z,100689.81
2023-05-04T18:32:44.482Z,100680.22
2023-05-04T18:35:13.065Z,100688.69
2023-05-04T18:37:41.866Z,100689.94
2023-05-04T18:40:11.413Z,100694.00
2023-05-04T18:42:39.933Z,100696.44
2023-05-04T18:45:10.565Z,100697.97
2023-05-04T18:47:38.992Z,100684.69
2023-05-04T18:50:12.712Z,100695.63
2023-05-04T18:52:41.454Z,100695.72
2023-05-04T18:55:10.399Z,100696.66
2023-05-04T18:57:42.103Z,100699.91
2023-05-04T19:00:12.081Z,100701.50
2023-05-04T19:02:41.006Z,100695.94
2023-05-04T19:05:14.297Z,100698.16
2023-05-04T19:07:43.519Z,100694.56
2023-05-04T19:10:12.376Z,100699.66
2023-05-04T19:12:40.945Z,100696.91
2023-05-04T19:15:10.574Z,100705.84
2023-05-04T19:17:39.211Z,100698.91
2023-05-04T19:20:09.295Z,100692.97
2023-05-04T19:22:39.246Z,100698.03
2023-05-04T19:25:08.450Z,100702.09
2023-05-04T19:27:36.913Z,100688.97
2023-05-04T19:30:06.194Z,100693.41
2023-05-04T19:32:34.934Z,100693.66
2023-05-04T19:35:03.689Z,100693.34
2023-05-04T19:37:32.945Z,100693.44
2023-05-04T19:40:03.100Z,100703.84
2023-05-04T19:42:31.960Z,100690.53
2023-05-04T19:45:00.654Z,100701.59
2023-05-04T19:47:30.084Z,100684.28
2023-05-04T19:49:58.616Z,100674.59
2023-05-04T19:52:27.147Z,100694.63
2023-05-04T19:54:55.732Z,100689.34
2023-05-04T19:57:25.578Z,100676.44
2023-05-04T19:59:55.965Z,100679.69
2023-05-04T20:02:24.678Z,100676.69
2023-05-04T20:04:53.690Z,100676.09
2023-05-04T20:07:22.328Z,100675.16
2023-05-04T20:09:50.818Z,100672.69
2023-05-04T20:12:19.821Z,100676.53
2023-05-04T20:14:49.762Z,100674.19
2023-05-04T20:17:18.387Z,100680.56
2023-05-04T20:19:47.756Z,100667.59
2023-05-04T20:22:16.635Z,100673.78
2023-05-04T20:24:45.323Z,100673.28
2023-05-04T20:27:13.959Z,100665.31
2023-05-04T20:29:42.847Z,100661.19
2023-05-04T20:32:13.469Z,100656.03
2023-05-04T20:34:43.403Z,100664.06
2023-05-04T20:37:13.377Z,100664.75
2023-05-04T20:39:41.968Z,100655.09
2023-05-04T20:42:10.511Z,100662.59
2023-05-04T20:44:42.646Z,100668.97
2023-05-04T20:47:12.744Z,100669.00
2023-05-04T20:49:41.279Z,100667.81
2023-05-04T20:52:09.765Z,100669.16
2023-05-04T20:54:38.212Z,100660.16
2023-05-04T20:57:06.834Z,100667.19
2023-05-04T20:59:36.045Z,100654.00
2023-05-04T21:02:04.688Z,100660.34
2023-05-04T21:04:34.840Z,100650.38
2023-05-04T21:07:03.299Z,100657.88
2023-05-04T21:09:32.479Z,100658.56
2023-05-04T21:12:01.119Z,100642.72
2023-05-04T21:14:29.816Z,100652.56
2023-05-04T21:16:58.315Z,100649.56
2023-05-04T21:19:26.789Z,100647.72
2023-05-04T21:21:57.117Z,100653.56
2023-05-04T21:24:25.583Z,100653.25
2023-05-04T21:26:54.286Z,100647.72
2023-05-04T21:29:22.815Z,100641.88
2023-05-04T21:31:51.728Z,100647.03
2023-05-04T21:34:20.286Z,100639.16
2023-05-04T21:36:51.235Z,100649.34
2023-05-04T21:39:21.856Z,100648.81
2023-05-04T21:41:50.370Z,100647.66
2023-05-04T21:44:18.919Z,100651.50
2023-05-04T21:46:47.532Z,100644.31
2023-05-04T21:49:16.017Z,100640.47
2023-05-04T21:51:44.516Z,100645.13
2023-05-04T21:54:12.943Z,100639.63
2023-05-04T21:56:43.793Z,100642.63
2023-05-04T21:59:12.185Z,100637.94
2023-05-04T22:01:40.700Z,100618.75
2023-05-04T22:04:09.809Z,100625.75
2023-05-04T22:06:38.801Z,100629.38
2023-05-04T22:09:07.368Z,100630.88
2023-05-04T22:11:36.041Z,100624.00
2023-05-04T22:14:05.966Z,100632.47
2023-05-04T22:16:34.737Z,100628.63
2023-05-04T22:19:03.558Z,100628.28
2023-05-04T22:21:32.960Z,100632.56
2023-05-04T22:24:01.581Z,100624.72
2023-05-04T22:26:30.581Z,100618.50
2023-05-04T22:28:59.069Z,100627.81
2023-05-04T22:31:29.373Z,100628.13
2023-05-04T22:33:57.886Z,100624.13
2023-05-04T22:36:26.516Z,100621.09
2023-05-04T22:38:55.066Z,100613.88
2023-05-04T22:41:23.914Z,100622.03
2023-05-04T22:43:52.431Z,100617.19
2023-05-04T22:46:21.038Z,100622.13
2023-05-04T22:48:50.914Z,100620.94
2023-05-04T22:51:19.388Z,100611.44
2023-05-04T22:53:47.981Z,100606.56
2023-05-04T22:56:16.407Z,100606.22
2023-05-04T22:58:46.796Z,100609.50
2023-05-04T23:01:15.378Z,100609.28
2023-05-04T23:03:44.957Z,100600.09
2023-05-04T23:06:15.445Z,100600.72
2023-05-04T23:08:45.572Z,100603.84
2023-05-04T23:11:14.041Z,100607.13
2023-05-04T23:13:42.844Z,100610.91
2023-05-04T23:16:11.340Z,100603.41
2023-05-04T23:18:39.899Z,100599.53
2023-05-04T23:21:08.403Z,100608.81
2023-05-04T23:23:38.937Z,100608.13
2023-05-04T23:26:07.423Z,100611.09
2023-05-04T23:28:35.927Z,100611.38
2023-05-04T23:31:04.601Z,100605.56
2023-05-04T23:33:33.181Z,100602.13
2023-05-04T23:36:02.142Z,100610.09
2023-05-04T23:38:30.708Z,100596.16
2023-05-04T23:41:02.728Z,100596.69
2023-05-04T23:43:32.271Z,100590.19
2023-05-04T23:46:02.220Z,100592.44
2023-05-04T23:48:30.965Z,100590.22
2023-05-04T23:51:04.041Z,100584.53
2023-05-04T23:53:33.865Z,100590.31
2023-05-04T23:56:06.740Z,100585.28
2023-05-04T23:58:36.164Z,100592.72
